sensor_id;sensor_type;location;lat;lon;timestamp;P1;durP1;ratioP1;P2;durP2;ratioP2
56171;SDS011;42052;41.634;-0.946;2023-08-31T00:00:10;4.93;;;1.95;;
56171;SDS011;42052;41.634;-0.946;2023-08-31T00:02:38;3.88;;;1.58;;
56171;SDS011;42052;41.634;-0.946;2023-08-31T00:05:05;2.80;;;1.30;;
56171;SDS011;42052;41.634;-0.946;2023-08-31T00:07:31;3.53;;;1.40;;
56171;SDS011;42052;41.634;-0.946;2023-08-31T00:09:57;2.38;;;1.40;;
56171;SDS011;42052;41.634;-0.946;2023-08-31T00:12:23;2.67;;;1.33;;
56171;SDS011;42052;41.634;-0.946;2023-08-31T00:14:50;5.10;;;1.63;;
56171;SDS011;42052;41.634;-0.946;2023-08-31T00:17:15;3.92;;;1.65;;
56171;SDS011;42052;41.634;-0.946;2023-08-31T00:19:42;3.65;;;1.70;;
56171;SDS011;42052;41.634;-0.946;2023-08-31T00:22:08;3.33;;;1.40;;
56171;SDS011;42052;41.634;-0.946;2023-08-31T00:24:34;4.10;;;1.55;;
56171;SDS011;42052;41.634;-0.946;2023-08-31T00:27:01;6.18;;;1.73;;
56171;SDS011;42052;41.634;-0.946;2023-08-31T00:29:28;4.30;;;1.55;;
56171;SDS011;42052;41.634;-0.946;2023-08-31T00:31:55;9.30;;;1.50;;
56171;SDS011;42052;41.634;-0.946;2023-08-31T00:34:21;2.78;;;1.50;;
56171;SDS011;42052;41.634;-0.946;2023-08-31T00:36:47;4.18;;;1.40;;
56171;SDS011;42052;41.634;-0.946;2023-08-31T00:39:13;4.38;;;1.58;;
56171;SDS011;42052;41.634;-0.946;2023-08-31T00:41:39;3.22;;;1.50;;
56171;SDS011;42052;41.634;-0.946;2023-08-31T00:44:05;2.90;;;1.50;;
56171;SDS011;42052;41.634;-0.946;2023-08-31T00:46:32;3.70;;;1.60;;
56171;SDS011;42052;41.634;-0.946;2023-08-31T00:48:59;5.20;;;1.25;;
56171;SDS011;42052;41.634;-0.946;2023-08-31T00:51:25;3.60;;;1.70;;
56171;SDS011;42052;41.634;-0.946;2023-08-31T00:53:51;3.85;;;1.40;;
56171;SDS011;42052;41.634;-0.946;2023-08-31T00:56:20;5.70;;;1.70;;
56171;SDS011;42052;41.634;-0.946;2023-08-31T00:58:47;3.50;;;1.38;;
56171;SDS011;42052;41.634;-0.946;2023-08-31T01:01:22;5.10;;;1.70;;
56171;SDS011;42052;41.634;-0.946;2023-08-31T01:06:50;4.95;;;1.90;;
56171;SDS011;42052;41.634;-0.946;2023-08-31T01:12:18;4.00;;;1.40;;
56171;SDS011;42052;41.634;-0.946;2023-08-31T01:15:04;4.00;;;1.58;;
56171;SDS011;42052;41.634;-0.946;2023-08-31T01:17:33;2.05;;;1.30;;
56171;SDS011;42052;41.634;-0.946;2023-08-31T01:20:10;4.63;;;1.30;;
56171;SDS011;42052;41.634;-0.946;2023-08-31T01:22:51;4.95;;;1.55;;
56171;SDS011;42052;41.634;-0.946;2023-08-31T01:25:28;3.67;;;1.45;;
56171;SDS011;42052;41.634;-0.946;2023-08-31T01:27:56;4.93;;;1.60;;
56171;SDS011;42052;41.634;-0.946;2023-08-31T01:30:23;2.10;;;1.40;;
56171;SDS011;42052;41.634;-0.946;2023-08-31T01:32:49;3.80;;;1.48;;
56171;SDS011;42052;41.634;-0.946;2023-08-31T01:35:16;6.32;;;1.50;;
56171;SDS011;42052;41.634;-0.946;2023-08-31T01:37:53;4.07;;;1.45;;
56171;SDS011;42052;41.634;-0.946;2023-08-31T01:40:27;5.07;;;1.60;;
56171;SDS011;42052;41.634;-0.946;2023-08-31T01:43:03;3.90;;;1.50;;
56171;SDS011;42052;41.634;-0.946;2023-08-31T01:45:31;7.70;;;1.60;;
56171;SDS011;42052;41.634;-0.946;2023-08-31T01:48:00;3.70;;;1.40;;
56171;SDS011;42052;41.634;-0.946;2023-08-31T01:50:26;2.90;;;1.40;;
56171;SDS011;42052;41.634;-0.946;2023-08-31T01:52:52;5.55;;;1.50;;
56171;SDS011;42052;41.634;-0.946;2023-08-31T01:55:18;4.47;;;1.50;;
56171;SDS011;42052;41.634;-0.946;2023-08-31T01:57:44;3.40;;;1.35;;
56171;SDS011;42052;41.634;-0.946;2023-08-31T02:00:10;6.57;;;1.80;;
56171;SDS011;42052;41.634;-0.946;2023-08-31T02:02:38;4.63;;;1.73;;
56171;SDS011;42052;41.634;-0.946;2023-08-31T02:05:04;5.10;;;1.40;;
56171;SDS011;42052;41.634;-0.946;2023-08-31T02:07:30;4.45;;;1.60;;
56171;SDS011;42052;41.634;-0.946;2023-08-31T02:09:56;6.28;;;1.85;;
56171;SDS011;42052;41.634;-0.946;2023-08-31T02:12:21;5.55;;;1.80;;
56171;SDS011;42052;41.634;-0.946;2023-08-31T02:14:47;5.05;;;1.70;;
56171;SDS011;42052;41.634;-0.946;2023-08-31T02:17:13;5.25;;;1.70;;
56171;SDS011;42052;41.634;-0.946;2023-08-31T02:19:39;5.05;;;1.80;;
56171;SDS011;42052;41.634;-0.946;2023-08-31T02:22:05;6.05;;;1.73;;
56171;SDS011;42052;41.634;-0.946;2023-08-31T02:24:30;5.10;;;1.90;;
56171;SDS011;42052;41.634;-0.946;2023-08-31T02:26:56;5.95;;;1.55;;
56171;SDS011;42052;41.634;-0.946;2023-08-31T02:29:22;3.70;;;1.60;;
56171;SDS011;42052;41.634;-0.946;2023-08-31T02:31:48;4.70;;;1.70;;
56171;SDS011;42052;41.634;-0.946;2023-08-31T02:34:14;5.90;;;1.90;;
56171;SDS011;42052;41.634;-0.946;2023-08-31T02:36:40;3.15;;;1.48;;
56171;SDS011;42052;41.634;-0.946;2023-08-31T02:39:05;4.60;;;1.98;;
56171;SDS011;42052;41.634;-0.946;2023-08-31T02:41:31;4.72;;;1.65;;
56171;SDS011;42052;41.634;-0.946;2023-08-31T02:43:57;2.97;;;1.60;;
56171;SDS011;42052;41.634;-0.946;2023-08-31T02:46:23;3.65;;;1.60;;
56171;SDS011;42052;41.634;-0.946;2023-08-31T02:48:49;4.60;;;1.83;;
56171;SDS011;42052;41.634;-0.946;2023-08-31T02:51:15;2.75;;;1.83;;
56171;SDS011;42052;41.634;-0.946;2023-08-31T02:53:41;3.08;;;1.70;;
56171;SDS011;42052;41.634;-0.946;2023-08-31T02:56:07;4.32;;;1.63;;
56171;SDS011;42052;41.634;-0.946;2023-08-31T02:58:33;3.92;;;1.77;;
56171;SDS011;42052;41.634;-0.946;2023-08-31T03:01:06;8.93;;;2.20;;
56171;SDS011;42052;41.634;-0.946;2023-08-31T03:03:33;5.75;;;2.00;;
56171;SDS011;42052;41.634;-0.946;2023-08-31T03:06:00;4.07;;;1.90;;
56171;SDS011;42052;41.634;-0.946;2023-08-31T03:08:26;4.80;;;1.88;;
56171;SDS011;42052;41.634;-0.946;2023-08-31T03:10:51;4.28;;;1.90;;
56171;SDS011;42052;41.634;-0.946;2023-08-31T03:13:18;3.53;;;1.80;;
56171;SDS011;42052;41.634;-0.946;2023-08-31T03:15:44;2.83;;;1.67;;
56171;SDS011;42052;41.634;-0.946;2023-08-31T03:18:09;8.63;;;2.10;;
56171;SDS011;42052;41.634;-0.946;2023-08-31T03:20:35;5.82;;;1.95;;
56171;SDS011;42052;41.634;-0.946;2023-08-31T03:23:01;5.97;;;2.00;;
56171;SDS011;42052;41.634;-0.946;2023-08-31T03:25:27;4.00;;;1.55;;
56171;SDS011;42052;41.634;-0.946;2023-08-31T03:27:53;5.63;;;2.08;;
56171;SDS011;42052;41.634;-0.946;2023-08-31T03:30:19;4.70;;;1.80;;
56171;SDS011;42052;41.634;-0.946;2023-08-31T03:32:45;6.13;;;2.08;;
56171;SDS011;42052;41.634;-0.946;2023-08-31T03:35:10;5.32;;;1.83;;
56171;SDS011;42052;41.634;-0.946;2023-08-31T03:37:36;4.22;;;1.85;;
56171;SDS011;42052;41.634;-0.946;2023-08-31T03:40:02;3.75;;;1.90;;
56171;SDS011;42052;41.634;-0.946;2023-08-31T03:42:31;6.18;;;1.90;;
56171;SDS011;42052;41.634;-0.946;2023-08-31T03:44:58;4.57;;;2.00;;
56171;SDS011;42052;41.634;-0.946;2023-08-31T03:47:24;4.47;;;2.25;;
56171;SDS011;42052;41.634;-0.946;2023-08-31T03:49:50;4.25;;;1.88;;
56171;SDS011;42052;41.634;-0.946;2023-08-31T03:52:16;3.42;;;1.88;;
56171;SDS011;42052;41.634;-0.946;2023-08-31T03:54:41;3.42;;;1.92;;
56171;SDS011;42052;41.634;-0.946;2023-08-31T03:57:07;4.32;;;2.03;;
56171;SDS011;42052;41.634;-0.946;2023-08-31T03:59:33;5.45;;;2.30;;
56171;SDS011;42052;41.634;-0.946;2023-08-31T04:01:59;3.65;;;2.10;;
56171;SDS011;42052;41.634;-0.946;2023-08-31T04:04:25;6.65;;;2.40;;
56171;SDS011;42052;41.634;-0.946;2023-08-31T04:06:51;4.65;;;2.10;;
56171;SDS011;42052;41.634;-0.946;2023-08-31T04:09:16;4.45;;;2.28;;
56171;SDS011;42052;41.634;-0.946;2023-08-31T04:11:42;4.60;;;2.28;;
56171;SDS011;42052;41.634;-0.946;2023-08-31T04:14:08;5.05;;;2.30;;
56171;SDS011;42052;41.634;-0.946;2023-08-31T04:16:33;4.18;;;2.13;;
56171;SDS011;42052;41.634;-0.946;2023-08-31T04:18:59;4.15;;;2.17;;
56171;SDS011;42052;41.634;-0.946;2023-08-31T04:21:25;5.38;;;2.28;;
56171;SDS011;42052;41.634;-0.946;2023-08-31T04:23:51;4.53;;;2.00;;
56171;SDS011;42052;41.634;-0.946;2023-08-31T04:26:16;4.05;;;2.03;;
56171;SDS011;42052;41.634;-0.946;2023-08-31T04:28:42;4.88;;;2.08;;
56171;SDS011;42052;41.634;-0.946;2023-08-31T04:31:08;4.13;;;1.95;;
56171;SDS011;42052;41.634;-0.946;2023-08-31T04:33:35;6.35;;;2.13;;
56171;SDS011;42052;41.634;-0.946;2023-08-31T04:36:02;4.45;;;2.05;;
56171;SDS011;42052;41.634;-0.946;2023-08-31T04:38:29;3.92;;;2.10;;
56171;SDS011;42052;41.634;-0.946;2023-08-31T04:40:59;5.85;;;2.10;;
56171;SDS011;42052;41.634;-0.946;2023-08-31T04:43:25;3.95;;;1.95;;
56171;SDS011;42052;41.634;-0.946;2023-08-31T04:45:52;2.97;;;2.10;;
56171;SDS011;42052;41.634;-0.946;2023-08-31T04:48:18;6.63;;;2.30;;
56171;SDS011;42052;41.634;-0.946;2023-08-31T04:50:44;5.25;;;2.00;;
56171;SDS011;42052;41.634;-0.946;2023-08-31T04:53:10;3.78;;;2.00;;
56171;SDS011;42052;41.634;-0.946;2023-08-31T04:55:36;3.45;;;2.08;;
56171;SDS011;42052;41.634;-0.946;2023-08-31T04:58:03;4.40;;;2.08;;
56171;SDS011;42052;41.634;-0.946;2023-08-31T05:00:29;7.28;;;2.40;;
56171;SDS011;42052;41.634;-0.946;2023-08-31T05:02:55;4.00;;;2.15;;
56171;SDS011;42052;41.634;-0.946;2023-08-31T05:05:21;3.10;;;1.92;;
56171;SDS011;42052;41.634;-0.946;2023-08-31T05:07:47;3.97;;;2.00;;
56171;SDS011;42052;41.634;-0.946;2023-08-31T05:10:12;4.57;;;2.28;;
56171;SDS011;42052;41.634;-0.946;2023-08-31T05:12:38;9.02;;;2.60;;
56171;SDS011;42052;41.634;-0.946;2023-08-31T05:15:05;10.38;;;3.40;;
56171;SDS011;42052;41.634;-0.946;2023-08-31T05:17:31;12.15;;;3.40;;
56171;SDS011;42052;41.634;-0.946;2023-08-31T05:19:57;17.80;;;4.45;;
56171;SDS011;42052;41.634;-0.946;2023-08-31T05:22:23;19.27;;;4.85;;
56171;SDS011;42052;41.634;-0.946;2023-08-31T05:24:48;19.02;;;4.57;;
56171;SDS011;42052;41.634;-0.946;2023-08-31T05:27:14;22.85;;;5.13;;
56171;SDS011;42052;41.634;-0.946;2023-08-31T05:29:40;18.92;;;4.72;;
56171;SDS011;42052;41.634;-0.946;2023-08-31T05:32:06;19.63;;;4.95;;
56171;SDS011;42052;41.634;-0.946;2023-08-31T05:34:32;15.05;;;4.57;;
56171;SDS011;42052;41.634;-0.946;2023-08-31T05:37:02;19.20;;;5.15;;
56171;SDS011;42052;41.634;-0.946;2023-08-31T05:39:30;16.73;;;5.00;;
56171;SDS011;42052;41.634;-0.946;2023-08-31T05:41:56;15.52;;;5.07;;
56171;SDS011;42052;41.634;-0.946;2023-08-31T05:44:22;16.23;;;4.40;;
56171;SDS011;42052;41.634;-0.946;2023-08-31T05:46:48;20.80;;;5.20;;
56171;SDS011;42052;41.634;-0.946;2023-08-31T05:49:14;17.90;;;4.80;;
56171;SDS011;42052;41.634;-0.946;2023-08-31T05:51:39;14.98;;;4.93;;
56171;SDS011;42052;41.634;-0.946;2023-08-31T05:54:05;19.92;;;4.85;;
56171;SDS011;42052;41.634;-0.946;2023-08-31T05:56:35;15.38;;;4.35;;
56171;SDS011;42052;41.634;-0.946;2023-08-31T05:59:01;15.38;;;4.60;;
56171;SDS011;42052;41.634;-0.946;2023-08-31T06:01:27;18.45;;;4.68;;
56171;SDS011;42052;41.634;-0.946;2023-08-31T06:03:53;16.58;;;4.53;;
56171;SDS011;42052;41.634;-0.946;2023-08-31T06:06:18;15.13;;;4.85;;
56171;SDS011;42052;41.634;-0.946;2023-08-31T06:08:44;14.85;;;4.50;;
56171;SDS011;42052;41.634;-0.946;2023-08-31T06:11:10;13.93;;;4.25;;
56171;SDS011;42052;41.634;-0.946;2023-08-31T06:13:38;11.90;;;4.28;;
56171;SDS011;42052;41.634;-0.946;2023-08-31T06:16:04;13.50;;;4.82;;
56171;SDS011;42052;41.634;-0.946;2023-08-31T06:18:30;14.82;;;4.30;;
56171;SDS011;42052;41.634;-0.946;2023-08-31T06:20:55;11.52;;;3.85;;
56171;SDS011;42052;41.634;-0.946;2023-08-31T06:23:21;12.15;;;3.88;;
56171;SDS011;42052;41.634;-0.946;2023-08-31T06:25:47;9.23;;;3.65;;
56171;SDS011;42052;41.634;-0.946;2023-08-31T06:28:13;13.75;;;3.90;;
56171;SDS011;42052;41.634;-0.946;2023-08-31T06:30:38;11.98;;;3.60;;
56171;SDS011;42052;41.634;-0.946;2023-08-31T06:33:09;15.13;;;4.00;;
56171;SDS011;42052;41.634;-0.946;2023-08-31T06:35:35;9.10;;;3.60;;
56171;SDS011;42052;41.634;-0.946;2023-08-31T06:38:02;14.18;;;4.00;;
56171;SDS011;42052;41.634;-0.946;2023-08-31T06:40:28;10.95;;;4.15;;
56171;SDS011;42052;41.634;-0.946;2023-08-31T06:42:54;9.25;;;3.67;;
56171;SDS011;42052;41.634;-0.946;2023-08-31T06:45:19;9.57;;;3.78;;
56171;SDS011;42052;41.634;-0.946;2023-08-31T06:47:45;9.88;;;3.65;;
56171;SDS011;42052;41.634;-0.946;2023-08-31T06:50:11;9.02;;;3.38;;
56171;SDS011;42052;41.634;-0.946;2023-08-31T06:52:37;8.52;;;3.63;;
56171;SDS011;42052;41.634;-0.946;2023-08-31T06:55:02;11.60;;;3.83;;
56171;SDS011;42052;41.634;-0.946;2023-08-31T06:57:28;8.68;;;3.40;;
56171;SDS011;42052;41.634;-0.946;2023-08-31T06:59:54;11.93;;;3.60;;
56171;SDS011;42052;41.634;-0.946;2023-08-31T07:02:20;8.40;;;3.33;;
56171;SDS011;42052;41.634;-0.946;2023-08-31T07:04:47;9.43;;;3.15;;
56171;SDS011;42052;41.634;-0.946;2023-08-31T07:07:13;8.25;;;3.55;;
56171;SDS011;42052;41.634;-0.946;2023-08-31T07:09:42;7.00;;;3.05;;
56171;SDS011;42052;41.634;-0.946;2023-08-31T07:12:09;7.68;;;3.38;;
56171;SDS011;42052;41.634;-0.946;2023-08-31T07:14:35;8.73;;;3.50;;
56171;SDS011;42052;41.634;-0.946;2023-08-31T07:17:01;9.63;;;3.20;;
56171;SDS011;42052;41.634;-0.946;2023-08-31T07:19:27;6.60;;;3.03;;
56171;SDS011;42052;41.634;-0.946;2023-08-31T07:21:53;8.18;;;3.13;;
56171;SDS011;42052;41.634;-0.946;2023-08-31T07:24:22;7.30;;;2.72;;
56171;SDS011;42052;41.634;-0.946;2023-08-31T07:26:49;7.85;;;3.17;;
56171;SDS011;42052;41.634;-0.946;2023-08-31T07:29:15;7.65;;;3.28;;
56171;SDS011;42052;41.634;-0.946;2023-08-31T07:31:41;9.35;;;3.10;;
56171;SDS011;42052;41.634;-0.946;2023-08-31T07:34:07;7.93;;;3.20;;
56171;SDS011;42052;41.634;-0.946;2023-08-31T07:36:33;7.45;;;2.92;;
56171;SDS011;42052;41.634;-0.946;2023-08-31T07:38:59;10.85;;;3.08;;
56171;SDS011;42052;41.634;-0.946;2023-08-31T07:41:25;6.03;;;2.85;;
56171;SDS011;42052;41.634;-0.946;2023-08-31T07:43:50;6.32;;;2.60;;
56171;SDS011;42052;41.634;-0.946;2023-08-31T07:46:18;5.90;;;2.80;;
56171;SDS011;42052;41.634;-0.946;2023-08-31T07:48:44;8.18;;;3.00;;
56171;SDS011;42052;41.634;-0.946;2023-08-31T07:51:09;5.00;;;2.50;;
56171;SDS011;42052;41.634;-0.946;2023-08-31T07:53:35;6.40;;;2.80;;
56171;SDS011;42052;41.634;-0.946;2023-08-31T07:56:01;6.38;;;2.72;;
56171;SDS011;42052;41.634;-0.946;2023-08-31T07:58:27;6.07;;;3.00;;
56171;SDS011;42052;41.634;-0.946;2023-08-31T08:00:53;5.78;;;2.45;;
56171;SDS011;42052;41.634;-0.946;2023-08-31T08:03:21;9.93;;;2.88;;
56171;SDS011;42052;41.634;-0.946;2023-08-31T08:05:50;6.10;;;2.53;;
56171;SDS011;42052;41.634;-0.946;2023-08-31T08:08:16;5.68;;;2.50;;
56171;SDS011;42052;41.634;-0.946;2023-08-31T08:10:42;6.82;;;2.67;;
56171;SDS011;42052;41.634;-0.946;2023-08-31T08:13:08;4.65;;;2.53;;
56171;SDS011;42052;41.634;-0.946;2023-08-31T08:15:35;5.57;;;2.50;;
56171;SDS011;42052;41.634;-0.946;2023-08-31T08:18:00;7.32;;;2.58;;
56171;SDS011;42052;41.634;-0.946;2023-08-31T08:20:27;5.18;;;2.45;;
56171;SDS011;42052;41.634;-0.946;2023-08-31T08:22:53;5.20;;;2.40;;
56171;SDS011;42052;41.634;-0.946;2023-08-31T08:25:19;3.92;;;2.13;;
56171;SDS011;42052;41.634;-0.946;2023-08-31T08:27:46;4.78;;;2.30;;
56171;SDS011;42052;41.634;-0.946;2023-08-31T08:30:12;5.65;;;2.30;;
56171;SDS011;42052;41.634;-0.946;2023-08-31T08:32:38;5.40;;;2.50;;
56171;SDS011;42052;41.634;-0.946;2023-08-31T08:35:04;5.32;;;2.53;;
56171;SDS011;42052;41.634;-0.946;2023-08-31T08:37:30;6.72;;;2.30;;
56171;SDS011;42052;41.634;-0.946;2023-08-31T08:39:59;7.55;;;2.88;;
56171;SDS011;42052;41.634;-0.946;2023-08-31T08:42:26;6.85;;;2.30;;
56171;SDS011;42052;41.634;-0.946;2023-08-31T08:44:55;6.00;;;2.55;;
56171;SDS011;42052;41.634;-0.946;2023-08-31T08:47:22;8.05;;;2.80;;
56171;SDS011;42052;41.634;-0.946;2023-08-31T08:49:48;7.90;;;2.60;;
56171;SDS011;42052;41.634;-0.946;2023-08-31T08:52:17;8.75;;;2.20;;
56171;SDS011;42052;41.634;-0.946;2023-08-31T08:54:43;6.45;;;2.30;;
56171;SDS011;42052;41.634;-0.946;2023-08-31T08:57:09;4.82;;;2.25;;
56171;SDS011;42052;41.634;-0.946;2023-08-31T08:59:35;7.65;;;2.10;;
56171;SDS011;42052;41.634;-0.946;2023-08-31T09:02:01;9.43;;;2.60;;
56171;SDS011;42052;41.634;-0.946;2023-08-31T09:04:29;5.40;;;2.42;;
56171;SDS011;42052;41.634;-0.946;2023-08-31T09:06:55;4.60;;;2.45;;
56171;SDS011;42052;41.634;-0.946;2023-08-31T09:09:21;4.72;;;2.22;;
56171;SDS011;42052;41.634;-0.946;2023-08-31T09:11:47;6.57;;;2.60;;
56171;SDS011;42052;41.634;-0.946;2023-08-31T09:14:16;3.78;;;2.13;;
56171;SDS011;42052;41.634;-0.946;2023-08-31T09:16:50;4.68;;;2.00;;
56171;SDS011;42052;41.634;-0.946;2023-08-31T09:21:47;7.15;;;2.30;;
56171;SDS011;42052;41.634;-0.946;2023-08-31T09:24:16;5.03;;;2.13;;
56171;SDS011;42052;41.634;-0.946;2023-08-31T09:26:53;5.65;;;2.22;;
56171;SDS011;42052;41.634;-0.946;2023-08-31T09:29:21;6.40;;;2.30;;
56171;SDS011;42052;41.634;-0.946;2023-08-31T09:31:47;4.65;;;2.08;;
56171;SDS011;42052;41.634;-0.946;2023-08-31T09:34:16;4.82;;;2.00;;
56171;SDS011;42052;41.634;-0.946;2023-08-31T09:36:43;7.70;;;2.30;;
56171;SDS011;42052;41.634;-0.946;2023-08-31T09:39:09;4.78;;;2.28;;
56171;SDS011;42052;41.634;-0.946;2023-08-31T09:41:52;5.25;;;1.88;;
56171;SDS011;42052;41.634;-0.946;2023-08-31T09:44:19;5.85;;;2.22;;
56171;SDS011;42052;41.634;-0.946;2023-08-31T09:46:46;6.15;;;2.10;;
56171;SDS011;42052;41.634;-0.946;2023-08-31T09:49:16;5.35;;;2.40;;
56171;SDS011;42052;41.634;-0.946;2023-08-31T09:51:46;4.93;;;1.95;;
56171;SDS011;42052;41.634;-0.946;2023-08-31T09:54:20;7.63;;;2.35;;
56171;SDS011;42052;41.634;-0.946;2023-08-31T09:56:49;7.00;;;2.30;;
56171;SDS011;42052;41.634;-0.946;2023-08-31T09:59:16;5.40;;;2.08;;
56171;SDS011;42052;41.634;-0.946;2023-08-31T10:01:43;5.85;;;2.10;;
56171;SDS011;42052;41.634;-0.946;2023-08-31T10:04:11;3.75;;;1.90;;
56171;SDS011;42052;41.634;-0.946;2023-08-31T10:06:41;6.53;;;2.10;;
56171;SDS011;42052;41.634;-0.946;2023-08-31T10:09:07;5.63;;;1.75;;
56171;SDS011;42052;41.634;-0.946;2023-08-31T10:11:37;4.97;;;2.08;;
56171;SDS011;42052;41.634;-0.946;2023-08-31T10:14:04;5.30;;;1.85;;
56171;SDS011;42052;41.634;-0.946;2023-08-31T10:16:30;4.50;;;1.90;;
56171;SDS011;42052;41.634;-0.946;2023-08-31T10:18:57;4.03;;;1.70;;
56171;SDS011;42052;41.634;-0.946;2023-08-31T10:21:24;6.18;;;1.90;;
56171;SDS011;42052;41.634;-0.946;2023-08-31T10:23:50;6.65;;;1.67;;
56171;SDS011;42052;41.634;-0.946;2023-08-31T10:26:26;3.08;;;1.77;;
56171;SDS011;42052;41.634;-0.946;2023-08-31T10:28:53;3.63;;;1.70;;
56171;SDS011;42052;41.634;-0.946;2023-08-31T10:31:20;4.20;;;2.03;;
56171;SDS011;42052;41.634;-0.946;2023-08-31T10:34:02;3.88;;;1.70;;
56171;SDS011;42052;41.634;-0.946;2023-08-31T10:36:36;4.90;;;1.83;;
56171;SDS011;42052;41.634;-0.946;2023-08-31T10:39:16;3.75;;;1.77;;
56171;SDS011;42052;41.634;-0.946;2023-08-31T10:41:53;2.75;;;1.67;;
56171;SDS011;42052;41.634;-0.946;2023-08-31T10:44:24;3.53;;;1.77;;
56171;SDS011;42052;41.634;-0.946;2023-08-31T10:46:51;3.90;;;1.98;;
56171;SDS011;42052;41.634;-0.946;2023-08-31T10:49:18;3.90;;;1.70;;
56171;SDS011;42052;41.634;-0.946;2023-08-31T10:51:55;3.03;;;1.73;;
56171;SDS011;42052;41.634;-0.946;2023-08-31T10:54:26;3.58;;;1.63;;
56171;SDS011;42052;41.634;-0.946;2023-08-31T11:02:56;5.35;;;1.67;;
56171;SDS011;42052;41.634;-0.946;2023-08-31T11:05:10;3.70;;;1.50;;
56171;SDS011;42052;41.634;-0.946;2023-08-31T11:07:41;3.97;;;1.65;;
56171;SDS011;42052;41.634;-0.946;2023-08-31T11:12:53;5.55;;;1.88;;
56171;SDS011;42052;41.634;-0.946;2023-08-31T11:15:21;3.25;;;1.63;;
56171;SDS011;42052;41.634;-0.946;2023-08-31T11:17:51;3.22;;;1.45;;
56171;SDS011;42052;41.634;-0.946;2023-08-31T11:20:18;3.55;;;1.38;;
56171;SDS011;42052;41.634;-0.946;2023-08-31T11:22:46;2.88;;;1.50;;
56171;SDS011;42052;41.634;-0.946;2023-08-31T11:25:18;4.22;;;1.80;;
56171;SDS011;42052;41.634;-0.946;2023-08-31T11:27:54;3.53;;;1.50;;
56171;SDS011;42052;41.634;-0.946;2023-08-31T11:30:20;3.13;;;1.50;;
56171;SDS011;42052;41.634;-0.946;2023-08-31T11:32:50;2.83;;;1.50;;
56171;SDS011;42052;41.634;-0.946;2023-08-31T11:35:18;1.98;;;1.20;;
56171;SDS011;42052;41.634;-0.946;2023-08-31T11:37:44;2.53;;;1.55;;
56171;SDS011;42052;41.634;-0.946;2023-08-31T11:40:14;2.40;;;1.50;;
56171;SDS011;42052;41.634;-0.946;2023-08-31T11:42:40;2.88;;;1.48;;
56171;SDS011;42052;41.634;-0.946;2023-08-31T11:45:06;2.38;;;1.50;;
56171;SDS011;42052;41.634;-0.946;2023-08-31T11:47:33;2.72;;;1.33;;
56171;SDS011;42052;41.634;-0.946;2023-08-31T11:49:59;3.05;;;1.30;;
56171;SDS011;42052;41.634;-0.946;2023-08-31T11:52:27;3.53;;;1.50;;
56171;SDS011;42052;41.634;-0.946;2023-08-31T11:54:53;1.85;;;1.45;;
56171;SDS011;42052;41.634;-0.946;2023-08-31T11:57:19;2.92;;;1.30;;
56171;SDS011;42052;41.634;-0.946;2023-08-31T11:59:55;1.88;;;1.23;;
56171;SDS011;42052;41.634;-0.946;2023-08-31T12:02:22;2.15;;;1.40;;
56171;SDS011;42052;41.634;-0.946;2023-08-31T12:04:47;3.22;;;1.40;;
56171;SDS011;42052;41.634;-0.946;2023-08-31T12:07:17;2.22;;;1.30;;
56171;SDS011;42052;41.634;-0.946;2023-08-31T12:09:44;1.90;;;1.20;;
56171;SDS011;42052;41.634;-0.946;2023-08-31T12:12:10;2.30;;;1.08;;
56171;SDS011;42052;41.634;-0.946;2023-08-31T12:14:38;2.60;;;1.30;;
56171;SDS011;42052;41.634;-0.946;2023-08-31T12:17:06;3.35;;;1.70;;
56171;SDS011;42052;41.634;-0.946;2023-08-31T12:19:33;5.82;;;2.30;;
56171;SDS011;42052;41.634;-0.946;2023-08-31T12:22:01;4.45;;;2.20;;
56171;SDS011;42052;41.634;-0.946;2023-08-31T12:24:27;6.65;;;2.60;;
56171;SDS011;42052;41.634;-0.946;2023-08-31T12:26:53;5.72;;;2.90;;
56171;SDS011;42052;41.634;-0.946;2023-08-31T12:29:19;6.10;;;3.25;;
56171;SDS011;42052;41.634;-0.946;2023-08-31T12:31:45;6.75;;;3.20;;
56171;SDS011;42052;41.634;-0.946;2023-08-31T12:34:11;7.95;;;3.05;;
56171;SDS011;42052;41.634;-0.946;2023-08-31T12:36:37;6.93;;;3.15;;
56171;SDS011;42052;41.634;-0.946;2023-08-31T12:39:06;5.68;;;2.75;;
56171;SDS011;42052;41.634;-0.946;2023-08-31T12:41:39;4.65;;;3.00;;
56171;SDS011;42052;41.634;-0.946;2023-08-31T12:44:05;5.38;;;2.85;;
56171;SDS011;42052;41.634;-0.946;2023-08-31T12:46:32;5.75;;;2.78;;
56171;SDS011;42052;41.634;-0.946;2023-08-31T12:49:02;7.22;;;3.33;;
56171;SDS011;42052;41.634;-0.946;2023-08-31T12:51:29;5.15;;;2.70;;
56171;SDS011;42052;41.634;-0.946;2023-08-31T12:53:55;6.13;;;3.03;;
56171;SDS011;42052;41.634;-0.946;2023-08-31T12:56:22;6.25;;;3.08;;
56171;SDS011;42052;41.634;-0.946;2023-08-31T12:58:51;6.85;;;3.08;;
56171;SDS011;42052;41.634;-0.946;2023-08-31T13:01:18;5.80;;;3.20;;
56171;SDS011;42052;41.634;-0.946;2023-08-31T13:03:45;5.88;;;2.90;;
56171;SDS011;42052;41.634;-0.946;2023-08-31T13:06:12;7.50;;;3.10;;
56171;SDS011;42052;41.634;-0.946;2023-08-31T13:08:44;5.45;;;3.05;;
56171;SDS011;42052;41.634;-0.946;2023-08-31T13:11:10;4.97;;;2.60;;
56171;SDS011;42052;41.634;-0.946;2023-08-31T13:13:37;3.85;;;2.65;;
56171;SDS011;42052;41.634;-0.946;2023-08-31T13:16:04;8.48;;;2.95;;
56171;SDS011;42052;41.634;-0.946;2023-08-31T13:18:29;6.90;;;3.10;;
56171;SDS011;42052;41.634;-0.946;2023-08-31T13:20:55;7.72;;;2.63;;
56171;SDS011;42052;41.634;-0.946;2023-08-31T13:23:22;5.25;;;2.70;;
56171;SDS011;42052;41.634;-0.946;2023-08-31T13:25:48;5.90;;;3.10;;
56171;SDS011;42052;41.634;-0.946;2023-08-31T13:28:15;5.40;;;2.80;;
56171;SDS011;42052;41.634;-0.946;2023-08-31T13:30:41;5.75;;;2.88;;
56171;SDS011;42052;41.634;-0.946;2023-08-31T13:33:07;5.15;;;2.92;;
56171;SDS011;42052;41.634;-0.946;2023-08-31T13:35:33;5.45;;;2.95;;
56171;SDS011;42052;41.634;-0.946;2023-08-31T13:38:00;4.68;;;2.83;;
56171;SDS011;42052;41.634;-0.946;2023-08-31T13:40:27;5.47;;;2.90;;
56171;SDS011;42052;41.634;-0.946;2023-08-31T13:42:54;6.32;;;3.03;;
56171;SDS011;42052;41.634;-0.946;2023-08-31T13:45:24;5.68;;;2.50;;
56171;SDS011;42052;41.634;-0.946;2023-08-31T13:47:51;5.68;;;2.83;;
56171;SDS011;42052;41.634;-0.946;2023-08-31T13:50:16;4.20;;;2.58;;
56171;SDS011;42052;41.634;-0.946;2023-08-31T13:52:42;3.80;;;2.60;;
56171;SDS011;42052;41.634;-0.946;2023-08-31T13:55:08;5.43;;;2.75;;
56171;SDS011;42052;41.634;-0.946;2023-08-31T13:57:34;5.60;;;2.70;;
56171;SDS011;42052;41.634;-0.946;2023-08-31T14:00:00;6.18;;;2.70;;
56171;SDS011;42052;41.634;-0.946;2023-08-31T14:02:26;6.15;;;2.70;;
56171;SDS011;42052;41.634;-0.946;2023-08-31T14:04:53;4.35;;;2.80;;
56171;SDS011;42052;41.634;-0.946;2023-08-31T14:07:19;4.97;;;2.72;;
56171;SDS011;42052;41.634;-0.946;2023-08-31T14:09:45;4.38;;;2.85;;
56171;SDS011;42052;41.634;-0.946;2023-08-31T14:12:10;5.53;;;2.55;;
56171;SDS011;42052;41.634;-0.946;2023-08-31T14:14:36;4.75;;;2.50;;
56171;SDS011;42052;41.634;-0.946;2023-08-31T14:17:02;4.10;;;2.45;;
56171;SDS011;42052;41.634;-0.946;2023-08-31T14:19:28;3.58;;;2.22;;
56171;SDS011;42052;41.634;-0.946;2023-08-31T14:21:54;4.47;;;2.50;;
56171;SDS011;42052;41.634;-0.946;2023-08-31T14:24:20;4.40;;;2.35;;
56171;SDS011;42052;41.634;-0.946;2023-08-31T14:26:46;4.75;;;2.80;;
56171;SDS011;42052;41.634;-0.946;2023-08-31T14:29:12;4.07;;;2.60;;
56171;SDS011;42052;41.634;-0.946;2023-08-31T14:31:38;3.85;;;2.47;;
56171;SDS011;42052;41.634;-0.946;2023-08-31T14:34:04;4.13;;;2.50;;
56171;SDS011;42052;41.634;-0.946;2023-08-31T14:36:30;4.55;;;2.38;;
56171;SDS011;42052;41.634;-0.946;2023-08-31T14:38:56;4.25;;;2.67;;
56171;SDS011;42052;41.634;-0.946;2023-08-31T14:41:21;4.05;;;2.50;;
56171;SDS011;42052;41.634;-0.946;2023-08-31T14:43:47;4.22;;;2.42;;
56171;SDS011;42052;41.634;-0.946;2023-08-31T14:46:13;3.40;;;2.30;;
56171;SDS011;42052;41.634;-0.946;2023-08-31T14:48:39;3.97;;;2.25;;